Time;durP1;ratioP1;P1;durP2;ratioP2;P2;SDS_P1;SDS_P2;PMS_P1;PMS_P2;Temp;Humidity;BMP_temperature;BMP_pressure;BME280_temperature;BME280_humidity;BME280_pressure;Samples;Min_cycle;Max_cycle;Signal;HPM_P1;HPM_P2
2022/07/12 00:01:08;;;;;;;2.40;2.20;;;13.60;99.90;;;;;;5026031;28;20234;-77
2022/07/12 00:03:34;;;;;;;2.78;2.53;;;13.50;99.90;;;;;;5015238;28;20185;-77
2022/07/12 00:06:01;;;;;;;2.90;2.70;;;13.50;99.90;;;;;;5012079;28;20217;-79
2022/07/12 00:08:27;;;;;;;2.85;2.65;;;13.40;99.90;;;;;;5024946;28;20250;-79
2022/07/12 00:10:53;;;;;;;2.97;2.53;;;13.40;99.90;;;;;;5025161;28;20655;-77
2022/07/12 00:13:19;;;;;;;3.25;2.60;;;13.30;99.90;;;;;;5014769;28;20482;-77
2022/07/12 00:15:44;;;;;;;2.97;2.78;;;13.30;99.90;;;;;;5025561;28;20217;-78
2022/07/12 00:18:10;;;;;;;3.13;2.92;;;13.20;99.90;;;;;;5025546;28;20191;-78
2022/07/12 00:20:37;;;;;;;3.30;2.70;;;13.20;99.90;;;;;;5016785;28;20209;-79
2022/07/12 00:23:03;;;;;;;3.00;2.70;;;13.20;99.90;;;;;;5024888;28;20608;-77
2022/07/12 00:25:29;;;;;;;2.70;2.45;;;13.20;99.90;;;;;;5025689;28;20186;-79
2022/07/12 00:27:55;;;;;;;2.75;2.53;;;13.20;99.90;;;;;;5024966;28;20198;-78
2022/07/12 00:30:21;;;;;;;2.92;2.72;;;13.10;99.90;;;;;;5025277;28;20218;-80
2022/07/12 00:32:47;;;;;;;2.58;2.38;;;13.20;99.90;;;;;;5017853;28;20187;-78
2022/07/12 00:35:14;;;;;;;2.80;2.60;;;13.20;99.90;;;;;;5016234;28;20193;-79
2022/07/12 00:37:40;;;;;;;2.80;2.60;;;13.20;99.90;;;;;;5025111;28;20179;-79
2022/07/12 00:40:11;;;;;;;3.30;2.97;;;13.20;99.90;;;;;;5016299;28;20217;-78
2022/07/12 00:42:39;;;;;;;4.78;3.50;;;13.20;99.90;;;;;;5032679;28;20178;-78
2022/07/12 00:45:06;;;;;;;4.03;3.00;;;13.30;99.90;;;;;;5026495;28;20265;-77
2022/07/12 00:47:42;;;;;;;3.30;3.00;;;13.20;99.90;;;;;;5025830;28;20205;-80
2022/07/12 00:50:09;;;;;;;3.13;2.78;;;13.20;99.90;;;;;;5025081;28;21113;-77
2022/07/12 00:52:36;;;;;;;3.03;2.72;;;13.20;99.90;;;;;;5026119;28;20645;-78
2022/07/12 00:55:03;;;;;;;3.15;2.85;;;13.10;99.90;;;;;;5026529;28;20186;-78
2022/07/12 00:57:30;;;;;;;2.95;2.55;;;13.10;99.90;;;;;;5025966;28;20227;-78
2022/07/12 00:59:55;;;;;;;3.35;2.80;;;13.10;99.90;;;;;;5025067;28;20686;-78
2022/07/12 01:02:21;;;;;;;3.10;2.80;;;13.10;99.90;;;;;;5015108;28;20234;-80
2022/07/12 01:04:47;;;;;;;3.05;2.75;;;13.10;99.90;;;;;;5026243;28;20313;-77
2022/07/12 01:07:13;;;;;;;3.20;2.90;;;13.10;99.90;;;;;;5026014;28;20206;-77
2022/07/12 01:09:39;;;;;;;3.05;2.75;;;13.10;99.90;;;;;;5025349;28;20207;-78
2022/07/12 01:12:05;;;;;;;3.67;3.00;;;13.10;99.90;;;;;;5026222;28;20186;-78
2022/07/12 01:14:32;;;;;;;3.42;2.88;;;13.20;99.90;;;;;;5025935;28;20638;-78
2022/07/12 01:16:58;;;;;;;3.17;2.88;;;13.20;99.90;;;;;;5025945;28;20697;-78
2022/07/12 01:19:24;;;;;;;3.47;2.83;;;13.20;99.90;;;;;;5025219;28;20206;-78
2022/07/12 01:21:52;;;;;;;2.97;2.70;;;13.20;99.90;;;;;;5029347;28;20182;-76
2022/07/12 01:24:21;;;;;;;2.92;2.72;;;13.20;99.90;;;;;;5016362;28;20614;-78
2022/07/12 01:26:48;;;;;;;3.13;2.83;;;13.30;99.90;;;;;;5019173;28;20556;-80
2022/07/12 01:29:14;;;;;;;3.67;2.83;;;13.30;99.90;;;;;;5028600;28;20183;-79
2022/07/12 01:31:40;;;;;;;3.67;3.10;;;13.40;99.90;;;;;;5018307;28;20183;-80
2022/07/12 01:34:06;;;;;;;3.53;2.88;;;13.40;99.90;;;;;;5029333;28;20187;-78
2022/07/12 01:36:32;;;;;;;2.88;2.67;;;13.40;99.90;;;;;;5019888;28;20209;-78
2022/07/12 01:39:01;;;;;;;3.78;2.80;;;13.50;99.90;;;;;;5021227;28;20190;-76
2022/07/12 01:41:27;;;;;;;3.55;2.72;;;13.40;99.90;;;;;;5029539;28;20179;-77
2022/07/12 01:43:54;;;;;;;3.47;2.60;;;13.40;99.90;;;;;;5029571;28;20233;-79
2022/07/12 01:46:19;;;;;;;3.00;2.70;;;13.30;99.90;;;;;;5029331;28;20188;-77
2022/07/12 01:48:45;;;;;;;3.40;2.92;;;13.30;99.90;;;;;;5028837;28;20179;-77
2022/07/12 01:51:11;;;;;;;2.95;2.63;;;13.20;99.90;;;;;;5028836;28;20198;-79
2022/07/12 01:53:36;;;;;;;4.18;3.17;;;13.20;99.90;;;;;;5016094;28;20535;-78
2022/07/12 01:56:03;;;;;;;3.60;2.75;;;13.10;99.90;;;;;;5028681;28;20281;-77
2022/07/12 01:58:29;;;;;;;4.63;2.85;;;13.10;99.90;;;;;;5027993;28;20269;-79
2022/07/12 02:00:56;;;;;;;3.92;2.90;;;13.00;99.90;;;;;;5020272;28;20210;-77
2022/07/12 02:03:22;;;;;;;3.63;3.00;;;13.00;99.90;;;;;;5028518;28;20179;-78
2022/07/12 02:05:48;;;;;;;3.78;3.10;;;13.00;99.90;;;;;;5016689;28;20213;-78
2022/07/12 02:08:14;;;;;;;4.93;2.90;;;12.90;99.90;;;;;;5028228;28;20301;-79
2022/07/12 02:10:40;;;;;;;5.35;2.78;;;12.90;99.90;;;;;;5016755;28;20214;-78
2022/07/12 02:13:06;;;;;;;3.67;2.92;;;12.90;99.90;;;;;;5029544;28;20201;-77
2022/07/12 02:15:32;;;;;;;3.60;2.90;;;12.90;99.90;;;;;;5029965;28;20207;-77
2022/07/12 02:17:58;;;;;;;5.15;3.50;;;12.90;99.90;;;;;;5019272;28;20222;-77
2022/07/12 02:20:24;;;;;;;3.95;3.22;;;12.90;99.90;;;;;;5028108;28;20233;-77
2022/07/12 02:22:50;;;;;;;7.60;3.72;;;12.90;99.90;;;;;;5029373;28;20185;-79
2022/07/12 02:25:16;;;;;;;5.72;3.58;;;12.90;99.90;;;;;;5029362;28;20203;-77
2022/07/12 02:27:41;;;;;;;6.88;3.72;;;13.00;99.90;;;;;;5018234;28;20539;-79
2022/07/12 02:30:11;;;;;;;6.38;3.47;;;13.00;99.90;;;;;;5028039;28;20963;-77
2022/07/12 02:32:37;;;;;;;3.78;3.33;;;13.10;99.90;;;;;;5027198;28;20179;-77
2022/07/12 02:35:04;;;;;;;5.20;3.50;;;13.20;99.90;;;;;;5016851;28;20187;-77
2022/07/12 02:37:30;;;;;;;5.03;3.42;;;13.30;99.90;;;;;;5018505;28;20206;-78
2022/07/12 02:40:53;;;;;;;4.03;3.33;;;13.30;99.90;;;;;;5027905;28;20683;-80
2022/07/12 02:42:41;;;;;;;5.88;3.78;;;13.30;99.90;;;;;;5027160;28;20186;-80
2022/07/12 02:45:08;;;;;;;4.68;3.20;;;13.30;99.90;;;;;;5028998;28;20306;-78
2022/07/12 02:47:37;;;;;;;4.22;3.60;;;13.30;99.90;;;;;;5028145;28;20225;-80
2022/07/12 02:50:04;;;;;;;4.10;3.05;;;13.40;99.90;;;;;;5027534;28;20273;-78
2022/07/12 02:52:29;;;;;;;6.70;3.80;;;13.40;99.90;;;;;;5028288;28;20221;-79
2022/07/12 02:54:55;;;;;;;5.00;3.92;;;13.40;99.90;;;;;;5027320;28;20599;-78
2022/07/12 02:57:20;;;;;;;7.43;3.80;;;13.50;99.90;;;;;;5027697;28;20210;-78
2022/07/12 02:59:46;;;;;;;5.93;3.85;;;13.40;99.90;;;;;;5026920;28;20715;-77
2022/07/12 03:02:11;;;;;;;4.53;3.63;;;13.50;99.90;;;;;;5015882;28;20187;-77
2022/07/12 03:04:37;;;;;;;4.63;3.85;;;13.50;99.90;;;;;;5027052;28;20197;-77
2022/07/12 03:07:03;;;;;;;7.68;3.85;;;13.50;99.90;;;;;;5026302;28;20194;-79
2022/07/12 03:09:28;;;;;;;7.70;3.63;;;13.50;99.90;;;;;;5025935;28;20217;-79
2022/07/12 03:11:54;;;;;;;5.78;4.20;;;13.60;99.90;;;;;;5015625;28;20717;-80
2022/07/12 03:14:19;;;;;;;7.35;6.25;;;13.60;99.90;;;;;;5026221;28;20197;-78
2022/07/12 03:16:45;;;;;;;9.48;5.60;;;13.70;99.90;;;;;;5026000;28;20225;-78
2022/07/12 03:19:10;;;;;;;6.80;4.85;;;13.70;99.90;;;;;;5025744;28;20265;-77
2022/07/12 03:21:36;;;;;;;6.80;5.50;;;13.80;99.90;;;;;;5027096;28;20202;-77
2022/07/12 03:24:02;;;;;;;7.97;6.40;;;13.80;99.90;;;;;;5026151;28;20190;-78
2022/07/12 03:26:27;;;;;;;9.60;5.80;;;13.80;99.90;;;;;;5026642;28;20539;-79
2022/07/12 03:28:53;;;;;;;7.57;6.13;;;13.80;99.90;;;;;;5013669;28;20237;-77
2022/07/12 03:31:19;;;;;;;8.40;6.80;;;13.80;99.90;;;;;;5014760;28;20210;-76
2022/07/12 03:33:44;;;;;;;6.93;6.22;;;13.90;99.90;;;;;;5025829;28;20214;-76
2022/07/12 03:36:10;;;;;;;9.30;7.28;;;13.90;99.90;;;;;;5026263;28;20735;-75
2022/07/12 03:38:36;;;;;;;9.35;7.18;;;13.90;99.90;;;;;;5024816;28;20631;-76
2022/07/12 03:41:02;;;;;;;10.75;8.90;;;13.80;99.90;;;;;;5025586;28;20186;-76
2022/07/12 03:43:28;;;;;;;10.45;8.07;;;13.80;99.90;;;;;;5025234;28;20193;-76
2022/07/12 03:45:54;;;;;;;10.73;8.45;;;13.80;99.90;;;;;;5025492;28;20197;-76
2022/07/12 03:48:19;;;;;;;8.55;7.32;;;13.80;99.90;;;;;;5024802;28;20646;-76
2022/07/12 03:50:45;;;;;;;9.25;6.68;;;13.80;99.90;;;;;;5015092;28;20210;-76
2022/07/12 03:53:11;;;;;;;8.30;7.43;;;13.80;99.90;;;;;;5016435;28;20194;-77
2022/07/12 03:55:37;;;;;;;8.05;7.22;;;13.80;99.90;;;;;;5025953;28;20588;-75
2022/07/12 03:58:03;;;;;;;10.48;7.55;;;13.90;99.90;;;;;;5025056;28;20186;-75
2022/07/12 04:00:28;;;;;;;9.20;7.63;;;14.00;99.90;;;;;;5025138;28;20221;-75
2022/07/12 04:02:54;;;;;;;10.07;8.50;;;14.00;99.90;;;;;;5013646;28;20174;-76
2022/07/12 04:05:20;;;;;;;9.93;7.82;;;14.10;99.90;;;;;;5025823;28;20171;-75
2022/07/12 04:07:45;;;;;;;9.57;7.57;;;14.10;99.90;;;;;;5025167;28;20182;-75
2022/07/12 04:10:11;;;;;;;13.05;8.80;;;14.10;99.90;;;;;;5011355;28;20341;-76
2022/07/12 04:12:37;;;;;;;10.02;7.53;;;14.10;99.90;;;;;;5025250;28;20718;-76
2022/07/12 04:15:06;;;;;;;11.13;7.93;;;14.20;99.90;;;;;;5010963;28;20796;-76
2022/07/12 04:17:32;;;;;;;9.05;7.72;;;14.20;99.90;;;;;;5024729;28;20206;-75
2022/07/12 04:19:58;;;;;;;9.73;7.30;;;14.30;99.90;;;;;;5024860;28;20257;-76
2022/07/12 04:22:23;;;;;;;7.68;6.63;;;14.40;99.90;;;;;;5024864;28;20610;-77
2022/07/12 04:24:49;;;;;;;8.35;6.72;;;14.40;99.90;;;;;;5025520;28;20631;-76
2022/07/12 04:27:15;;;;;;;7.80;6.40;;;14.50;99.90;;;;;;5022853;28;20606;-76
2022/07/12 04:29:40;;;;;;;8.00;5.70;;;14.60;99.90;;;;;;5024476;28;20210;-76
2022/07/12 04:32:06;;;;;;;7.93;5.70;;;14.80;99.90;;;;;;5024382;28;20179;-75
2022/07/12 04:34:32;;;;;;;5.63;5.00;;;14.90;99.90;;;;;;5017710;28;20183;-77
2022/07/12 04:36:58;;;;;;;6.43;5.40;;;15.00;99.90;;;;;;5024859;28;20205;-75
2022/07/12 04:39:23;;;;;;;7.32;5.22;;;15.20;99.90;;;;;;5024207;28;20286;-76
2022/07/12 04:41:49;;;;;;;5.68;4.93;;;15.20;99.90;;;;;;5025011;28;20214;-78
2022/07/12 04:44:14;;;;;;;6.03;4.65;;;15.20;99.90;;;;;;5025524;28;20276;-75
2022/07/12 04:46:40;;;;;;;5.88;4.40;;;15.30;99.90;;;;;;5025329;28;20297;-75
2022/07/12 04:49:06;;;;;;;6.05;4.13;;;15.40;99.90;;;;;;5023819;28;20191;-78
2022/07/12 04:51:32;;;;;;;6.00;4.50;;;15.40;99.90;;;;;;5025042;28;20183;-75
2022/07/12 04:53:58;;;;;;;4.80;4.35;;;15.40;99.90;;;;;;5014952;28;20179;-76
2022/07/12 04:56:23;;;;;;;7.80;4.93;;;15.40;99.90;;;;;;5027902;28;20256;-76
2022/07/12 04:58:49;;;;;;;5.95;4.32;;;15.50;99.90;;;;;;5028265;28;20178;-75
2022/07/12 05:01:15;;;;;;;5.28;4.78;;;15.60;99.90;;;;;;5016372;28;20289;-76
2022/07/12 05:03:41;;;;;;;4.47;4.07;;;15.60;99.90;;;;;;5028916;28;20257;-75
2022/07/12 05:06:07;;;;;;;7.80;4.80;;;15.70;99.90;;;;;;5029148;28;20270;-75
2022/07/12 05:08:34;;;;;;;6.57;4.47;;;15.80;99.90;;;;;;5028365;28;20631;-76
2022/07/12 05:10:59;;;;;;;6.68;4.70;;;15.90;99.90;;;;;;5028488;28;20238;-75
2022/07/12 05:13:25;;;;;;;5.82;4.78;;;16.10;99.90;;;;;;5018196;28;20214;-74
2022/07/12 05:15:51;;;;;;;6.78;4.75;;;16.30;99.90;;;;;;5027559;28;20556;-76
2022/07/12 05:18:16;;;;;;;5.80;4.53;;;16.40;99.90;;;;;;5028173;28;20216;-75
2022/07/12 05:20:42;;;;;;;5.57;5.05;;;16.60;99.90;;;;;;5028155;28;20642;-75
2022/07/12 05:23:08;;;;;;;4.90;4.47;;;16.90;99.90;;;;;;5027360;28;20627;-76
2022/07/12 05:25:33;;;;;;;5.53;4.47;;;18.20;99.90;;;;;;5027441;28;20704;-76
2022/07/12 05:27:59;;;;;;;4.30;3.90;;;19.40;72.70;;;;;;5027156;28;20187;-75
2022/07/12 05:30:25;;;;;;;4.20;3.80;;;21.30;1.00;;;;;;5026746;28;20293;-75
2022/07/12 05:32:51;;;;;;;4.53;3.53;;;23.20;1.00;;;;;;5027142;28;20256;-77
2022/07/12 05:35:17;;;;;;;4.10;3.67;;;24.70;1.00;;;;;;5027370;28;20266;-75
2022/07/12 05:37:43;;;;;;;3.22;3.03;;;25.60;32.90;;;;;;5026173;28;21102;-77
2022/07/12 05:40:09;;;;;;;4.70;3.15;;;25.80;90.30;;;;;;5026003;28;20210;-76
2022/07/12 05:42:34;;;;;;;4.43;3.50;;;25.10;1.00;;;;;;5015368;28;20179;-77
2022/07/12 05:45:00;;;;;;;6.28;3.72;;;24.90;1.00;;;;;;5027117;28;20665;-77
2022/07/12 05:47:26;;;;;;;3.17;2.90;;;23.90;99.90;;;;;;5015430;28;20187;-76
2022/07/12 05:49:51;;;;;;;3.63;3.17;;;23.80;99.90;;;;;;5014949;28;20209;-76
2022/07/12 05:55:01;;;;;;;3.72;3.28;;;26.90;1.00;;;;;;5027666;28;20182;-76
2022/07/12 05:57:27;;;;;;;5.05;3.53;;;27.40;99.90;;;;;;5027468;28;20233;-76
2022/07/12 05:59:53;;;;;;;5.30;3.63;;;25.50;1.00;;;;;;5018689;28;20551;-76
2022/07/12 06:02:18;;;;;;;3.03;2.78;;;25.90;31.90;;;;;;5027823;28;20249;-77
2022/07/12 06:04:44;;;;;;;3.05;2.85;;;27.10;1.00;;;;;;5027438;28;20193;-77
2022/07/12 06:07:09;;;;;;;3.15;2.85;;;27.50;1.00;;;;;;5027834;28;20198;-76
2022/07/12 06:09:35;;;;;;;3.72;3.20;;;28.30;99.90;;;;;;5026501;28;20651;-76
2022/07/12 06:12:01;;;;;;;4.45;3.38;;;28.60;99.90;;;;;;5027891;28;20179;-76
2022/07/12 06:14:26;;;;;;;3.67;2.95;;;28.80;99.90;;;;;;5027224;28;20182;-75
2022/07/12 06:16:52;;;;;;;3.53;2.70;;;27.00;99.90;;;;;;5027625;28;20215;-76
2022/07/12 06:19:18;;;;;;;2.60;2.40;;;27.70;99.90;;;;;;5026717;28;20225;-77
2022/07/12 06:21:43;;;;;;;3.00;2.70;;;28.40;99.90;;;;;;5013990;28;20221;-79
2022/07/12 06:24:09;;;;;;;2.35;2.15;;;28.90;6.00;;;;;;5026683;28;20183;-76
2022/07/12 06:26:34;;;;;;;2.33;2.17;;;28.50;1.00;;;;;;5027109;28;20191;-78
2022/07/12 06:29:00;;;;;;;1.67;1.58;;;28.10;1.00;;;;;;5025528;28;20535;-76
2022/07/12 06:31:25;;;;;;;1.73;1.60;;;28.70;1.00;;;;;;5027095;28;20187;-78
2022/07/12 06:33:51;;;;;;;1.70;1.60;;;28.90;1.00;;;;;;5026397;28;20186;-79
2022/07/12 06:36:17;;;;;;;1.70;1.60;;;29.90;1.00;;;;;;5026628;28;20306;-77
2022/07/12 06:38:43;;;;;;;1.13;1.02;;;30.50;1.00;;;;;;5025861;28;20262;-78
2022/07/12 06:41:08;;;;;;;1.50;1.40;;;30.30;1.00;;;;;;5026216;28;20205;-77
2022/07/12 06:43:34;;;;;;;2.60;1.83;;;30.30;1.00;;;;;;5026719;28;20186;-77
2022/07/12 06:45:59;;;;;;;1.77;1.67;;;30.00;1.00;;;;;;5017958;28;20204;-78
2022/07/12 06:48:25;;;;;;;1.55;1.45;;;28.70;1.00;;;;;;5015056;28;20179;-79
2022/07/12 06:50:51;;;;;;;2.15;1.70;;;28.80;1.00;;;;;;5026123;28;20221;-78
2022/07/12 06:53:16;;;;;;;1.88;1.77;;;28.00;1.00;;;;;;5026702;28;20187;-79
2022/07/12 06:55:45;;;;;;;1.85;1.58;;;29.50;1.00;;;;;;5018035;28;20241;-79
2022/07/12 06:58:11;;;;;;;1.83;1.70;;;30.30;1.00;;;;;;5026948;28;20229;-78
2022/07/12 07:00:37;;;;;;;1.60;1.50;;;30.70;1.00;;;;;;5026485;28;20219;-79
2022/07/12 07:03:05;;;;;;;2.10;1.90;;;30.80;1.00;;;;;;5028235;28;20190;-78
2022/07/12 07:05:31;;;;;;;2.20;2.10;;;30.60;1.00;;;;;;5027433;28;20186;-79
2022/07/12 07:07:57;;;;;;;2.25;1.80;;;31.30;1.00;;;;;;5027791;28;20191;-78
2022/07/12 07:10:22;;;;;;;2.03;1.92;;;31.00;1.00;;;;;;5026001;28;20625;-79
2022/07/12 07:12:48;;;;;;;1.67;1.58;;;31.20;1.00;;;;;;5027492;28;20523;-79
2022/07/12 07:15:15;;;;;;;1.80;1.70;;;30.70;99.90;;;;;;5027403;28;20294;-79
2022/07/12 07:17:42;;;;;;;1.95;1.85;;;30.60;99.90;;;;;;5027117;28;21005;-80
2022/07/12 07:20:09;;;;;;;1.70;1.60;;;30.50;99.90;;;;;;5026149;28;20203;-79
2022/07/12 07:22:35;;;;;;;1.60;1.50;;;31.00;99.90;;;;;;5026991;28;20194;-79
2022/07/12 07:25:00;;;;;;;1.63;1.52;;;31.30;99.90;;;;;;5027212;28;20179;-78
2022/07/12 07:27:26;;;;;;;1.70;1.52;;;30.90;99.90;;;;;;5016637;28;20592;-78
2022/07/12 07:32:35;;;;;;;1.70;1.60;;;25.10;99.90;;;;;;5026927;28;20181;-78
2022/07/12 07:35:02;;;;;;;1.42;1.33;;;24.90;99.90;;;;;;5027466;28;20265;-77
2022/07/12 07:37:27;;;;;;;1.70;1.60;;;23.70;1.00;;;;;;5027250;28;20202;-77
2022/07/12 07:39:53;;;;;;;1.60;1.27;;;22.70;99.90;;;;;;5017701;28;20252;-78
2022/07/12 07:42:19;;;;;;;1.50;1.40;;;22.30;73.00;;;;;;5027451;28;20550;-78
2022/07/12 07:44:44;;;;;;;1.55;1.45;;;21.90;99.90;;;;;;5026665;28;20258;-76
2022/07/12 07:47:10;;;;;;;2.10;1.30;;;21.50;16.30;;;;;;5026652;28;20209;-76
2022/07/12 07:49:36;;;;;;;1.52;1.42;;;21.10;1.00;;;;;;5026294;28;20728;-77
2022/07/12 07:52:02;;;;;;;1.73;1.50;;;20.90;16.10;;;;;;5027212;28;20179;-76
2022/07/12 07:54:27;;;;;;;2.13;1.90;;;20.90;1.00;;;;;;5027820;28;20183;-78
2022/07/12 07:56:53;;;;;;;2.13;1.92;;;20.80;1.00;;;;;;5027214;28;20226;-77
2022/07/12 07:59:18;;;;;;;1.83;1.73;;;20.70;1.00;;;;;;5016615;28;20187;-78
2022/07/12 08:01:52;;;;;;;1.85;1.75;;;20.60;59.20;;;;;;5027250;28;20186;-78
2022/07/12 08:04:18;;;;;;;1.63;1.42;;;20.40;99.90;;;;;;5016700;28;20604;-77
2022/07/12 08:06:46;;;;;;;1.67;1.55;;;20.40;99.90;;;;;;5026820;28;20187;-77
2022/07/12 08:09:12;;;;;;;2.45;1.50;;;20.20;99.90;;;;;;5026163;28;20269;-76
2022/07/12 08:11:38;;;;;;;1.50;1.33;;;20.20;99.90;;;;;;5026699;28;20273;-78
2022/07/12 08:14:05;;;;;;;2.40;1.52;;;20.20;99.90;;;;;;5016852;28;20522;-77
2022/07/12 08:16:31;;;;;;;2.22;1.70;;;20.40;1.00;;;;;;5026556;28;20249;-77
2022/07/12 08:18:57;;;;;;;1.85;1.75;;;20.50;1.00;;;;;;5014337;28;20657;-77
2022/07/12 08:21:23;;;;;;;3.38;1.70;;;20.40;98.70;;;;;;5026224;28;20202;-77
2022/07/12 08:23:49;;;;;;;2.55;1.92;;;20.40;99.90;;;;;;5026904;28;20183;-77
2022/07/12 08:26:15;;;;;;;3.88;2.70;;;20.20;26.60;;;;;;5026372;28;20186;-77
2022/07/12 08:28:41;;;;;;;2.92;2.42;;;20.30;99.90;;;;;;5024590;28;20178;-77
2022/07/12 08:31:07;;;;;;;3.00;2.47;;;20.50;99.90;;;;;;5015374;28;21034;-77
2022/07/12 08:33:32;;;;;;;2.38;2.17;;;20.60;99.90;;;;;;5026804;28;20171;-77
2022/07/12 08:35:58;;;;;;;2.90;2.20;;;20.70;99.90;;;;;;5025744;28;20202;-77
2022/07/12 08:38:24;;;;;;;2.72;2.10;;;20.80;99.90;;;;;;5014825;28;20654;-77
2022/07/12 08:40:49;;;;;;;2.85;2.30;;;20.80;1.00;;;;;;5025923;28;20260;-78
2022/07/12 08:43:15;;;;;;;2.35;2.15;;;20.70;6.50;;;;;;5027102;28;20175;-78
2022/07/12 08:45:41;;;;;;;3.35;2.22;;;20.60;95.00;;;;;;5015600;28;20183;-77
2022/07/12 08:48:08;;;;;;;2.67;2.40;;;20.60;48.70;;;;;;5026188;28;20183;-77
2022/07/12 08:50:34;;;;;;;2.25;2.13;;;20.60;99.90;;;;;;5018787;28;20241;-76
2022/07/12 08:53:00;;;;;;;2.30;2.10;;;20.50;99.90;;;;;;5026346;28;20182;-77
2022/07/12 08:55:36;;;;;;;2.70;2.50;;;20.60;99.90;;;;;;5026079;28;21210;-79
2022/07/12 08:58:14;;;;;;;3.20;2.90;;;20.70;99.90;;;;;;5026189;28;20214;-77
2022/07/12 09:00:41;;;;;;;3.35;3.05;;;20.60;76.20;;;;;;5025248;28;20275;-77
2022/07/12 09:03:07;;;;;;;3.45;3.15;;;20.60;99.90;;;;;;5016854;28;20307;-76
2022/07/12 09:05:33;;;;;;;3.60;3.30;;;20.60;1.00;;;;;;5026576;28;20228;-76
2022/07/12 09:08:05;;;;;;;3.45;3.13;;;20.50;99.90;;;;;;5026005;28;20947;-75
2022/07/12 09:10:35;;;;;;;3.38;3.10;;;20.50;79.90;;;;;;5025885;28;20202;-75
2022/07/12 09:13:01;;;;;;;3.90;3.40;;;20.50;1.00;;;;;;5026463;28;20245;-75
2022/07/12 09:15:27;;;;;;;3.45;3.17;;;20.50;99.90;;;;;;5015073;28;20181;-78
2022/07/12 09:18:12;;;;;;;3.30;3.00;;;20.50;90.90;;;;;;5016852;28;21194;-75
2022/07/12 09:20:39;;;;;;;3.55;3.00;;;20.60;1.00;;;;;;5024165;28;20202;-77
2022/07/12 09:23:09;;;;;;;4.32;3.50;;;20.70;1.00;;;;;;5026410;28;20182;-77
2022/07/12 09:25:36;;;;;;;6.18;4.07;;;20.70;99.90;;;;;;5015986;28;20183;-75
2022/07/12 09:28:08;;;;;;;6.22;3.85;;;20.90;1.00;;;;;;5025815;28;20183;-77
2022/07/12 09:30:38;;;;;;;4.30;3.90;;;20.90;1.00;;;;;;5017289;28;20210;-79
2022/07/12 09:36:10;;;;;;;3.88;3.05;;;21.20;1.00;;;;;;5026001;28;20306;-75
2022/07/12 09:39:00;;;;;;;3.50;3.20;;;21.20;1.00;;;;;;5020356;28;21099;-77
2022/07/12 09:41:26;;;;;;;3.65;3.35;;;21.30;99.90;;;;;;5026135;28;20167;-75
2022/07/12 09:44:05;;;;;;;3.90;3.50;;;21.30;1.00;;;;;;5031026;28;20775;-75
2022/07/12 09:46:32;;;;;;;3.92;3.63;;;21.30;1.00;;;;;;5029099;28;20178;-75
2022/07/12 09:48:58;;;;;;;3.50;3.20;;;21.30;99.90;;;;;;5028453;28;20240;-76
2022/07/12 09:51:25;;;;;;;4.53;3.38;;;21.50;99.90;;;;;;5020252;28;20690;-76
2022/07/12 09:53:53;;;;;;;3.47;3.08;;;21.60;1.00;;;;;;5019228;28;20221;-76
2022/07/12 09:56:21;;;;;;;3.83;3.33;;;21.60;1.00;;;;;;5019640;28;20277;-75
2022/07/12 09:58:54;;;;;;;4.07;3.05;;;21.60;99.90;;;;;;5028891;28;20187;-76
2022/07/12 10:01:20;;;;;;;4.35;3.17;;;21.50;99.90;;;;;;5017198;28;20230;-75
2022/07/12 10:03:47;;;;;;;2.80;2.60;;;21.70;99.90;;;;;;5029384;28;20183;-76
2022/07/12 10:06:20;;;;;;;3.15;2.55;;;22.00;99.90;;;;;;5029221;28;21015;-76
2022/07/12 10:08:46;;;;;;;3.08;2.53;;;22.30;99.90;;;;;;5019388;28;20187;-75
2022/07/12 10:11:13;;;;;;;3.25;2.75;;;22.50;1.00;;;;;;5018745;28;20195;-76
2022/07/12 10:13:39;;;;;;;3.42;2.63;;;22.60;99.90;;;;;;5018851;28;20186;-74
2022/07/12 10:16:08;;;;;;;3.10;2.80;;;22.80;1.00;;;;;;5028843;28;20207;-76
2022/07/12 10:18:33;;;;;;;3.28;2.63;;;23.10;99.90;;;;;;5028065;28;20647;-75
2022/07/12 10:20:59;;;;;;;2.70;2.50;;;23.20;40.50;;;;;;5028283;28;20218;-76
2022/07/12 10:23:30;;;;;;;2.70;2.50;;;23.30;1.00;;;;;;5029401;28;20211;-76
2022/07/12 10:25:56;;;;;;;2.70;2.42;;;23.30;1.00;;;;;;5028140;28;20183;-77
2022/07/12 10:28:22;;;;;;;3.80;2.50;;;23.40;38.40;;;;;;5019404;28;20524;-77
2022/07/12 10:30:50;;;;;;;2.13;1.92;;;23.40;99.90;;;;;;5028141;28;20216;-78
2022/07/12 10:33:19;;;;;;;2.15;1.73;;;23.70;80.00;;;;;;5028610;28;20183;-76
2022/07/12 10:36:05;;;;;;;4.72;2.10;;;23.60;49.90;;;;;;5029090;28;20182;-76
2022/07/12 10:38:32;;;;;;;2.08;1.98;;;23.50;74.40;;;;;;5027940;28;20187;-77
2022/07/12 10:41:15;;;;;;;2.10;1.90;;;23.50;99.90;;;;;;5026595;28;20673;-77
2022/07/12 10:46:25;;;;;;;3.95;1.88;;;23.60;1.00;;;;;;5027790;28;20189;-77
2022/07/12 10:48:51;;;;;;;3.42;1.77;;;23.70;1.00;;;;;;5017360;28;20217;-77
2022/07/12 10:51:21;;;;;;;2.03;1.85;;;23.70;99.90;;;;;;5027727;28;20202;-77
2022/07/12 10:53:50;;;;;;;2.42;2.25;;;24.00;1.00;;;;;;5016918;28;20650;-78
2022/07/12 10:56:25;;;;;;;1.80;1.70;;;24.10;99.90;;;;;;5028039;28;20207;-77
2022/07/12 10:58:55;;;;;;;1.65;1.52;;;24.00;1.00;;;;;;5026593;28;20171;-78
2022/07/12 11:01:32;;;;;;;1.88;1.77;;;23.90;99.90;;;;;;5015352;28;20214;-78
2022/07/12 11:04:10;;;;;;;2.00;1.58;;;23.80;92.40;;;;;;5016026;28;20236;-77
2022/07/12 11:06:41;;;;;;;2.17;1.50;;;23.80;1.00;;;;;;5027065;28;20622;-78
2022/07/12 11:09:10;;;;;;;1.38;1.27;;;23.70;6.40;;;;;;5025456;28;20197;-76
2022/07/12 11:11:43;;;;;;;2.05;1.60;;;23.70;1.00;;;;;;5034163;28;20253;-75
2022/07/12 11:14:09;;;;;;;1.23;1.13;;;23.60;1.00;;;;;;5026675;28;20217;-76
2022/07/12 11:16:42;;;;;;;2.65;1.23;;;23.50;99.90;;;;;;5026210;28;20245;-76
2022/07/12 11:19:08;;;;;;;2.03;1.50;;;23.60;99.90;;;;;;5026864;28;20183;-79
2022/07/12 11:21:35;;;;;;;1.60;1.50;;;23.70;99.90;;;;;;5026366;28;20183;-76
2022/07/12 11:24:01;;;;;;;1.65;1.20;;;23.60;99.90;;;;;;5018574;28;20568;-77
2022/07/12 11:26:27;;;;;;;1.60;1.30;;;23.50;99.10;;;;;;5026219;28;20265;-75
2022/07/12 11:28:57;;;;;;;1.30;1.20;;;23.50;99.90;;;;;;5026025;28;20273;-76
2022/07/12 11:31:25;;;;;;;1.90;1.40;;;23.50;99.90;;;;;;5025453;28;20207;-76
2022/07/12 11:33:51;;;;;;;1.63;1.33;;;23.70;99.90;;;;;;5026681;28;20175;-77
2022/07/12 11:36:17;;;;;;;0.80;0.80;;;23.70;92.20;;;;;;5025597;28;20704;-77
2022/07/12 11:38:46;;;;;;;1.33;1.10;;;23.90;1.00;;;;;;5025826;28;20175;-77
2022/07/12 11:41:13;;;;;;;3.28;1.52;;;24.00;1.00;;;;;;5025351;28;20654;-76
2022/07/12 11:43:39;;;;;;;0.85;0.80;;;24.30;1.00;;;;;;5025877;28;20547;-76
2022/07/12 11:46:06;;;;;;;1.50;1.20;;;24.30;1.00;;;;;;5025628;28;20186;-75
2022/07/12 11:48:33;;;;;;;5.97;4.68;;;24.30;1.00;;;;;;5024871;28;20183;-75
2022/07/12 11:51:05;;;;;;;2.03;1.73;;;24.30;1.00;;;;;;5025702;28;20217;-75
2022/07/12 11:53:31;;;;;;;7.22;4.13;;;24.30;1.00;;;;;;5025329;28;20187;-76
2022/07/12 11:55:59;;;;;;;1.00;0.90;;;24.40;1.00;;;;;;5025345;28;20260;-75
2022/07/12 11:58:25;;;;;;;0.80;0.80;;;24.30;1.00;;;;;;5024488;28;20910;-76
2022/07/12 12:00:53;;;;;;;1.77;0.93;;;24.40;1.00;;;;;;5025181;28;20215;-74
2022/07/12 12:03:19;;;;;;;1.35;0.90;;;24.40;1.00;;;;;;5024994;28;20280;-75
2022/07/12 12:05:50;;;;;;;2.20;1.05;;;24.40;1.00;;;;;;5025350;28;20240;-75
2022/07/12 12:08:18;;;;;;;1.25;1.00;;;24.40;1.00;;;;;;5024406;28;20187;-75
2022/07/12 12:10:56;;;;;;;1.20;1.10;;;24.40;1.00;;;;;;5025207;28;20333;-75
2022/07/12 12:13:23;;;;;;;1.00;1.00;;;24.50;1.00;;;;;;5025083;28;20170;-75
2022/07/12 12:15:51;;;;;;;1.42;1.10;;;24.40;1.00;;;;;;5025499;28;20171;-78
2022/07/12 12:18:17;;;;;;;2.40;1.08;;;24.40;1.00;;;;;;5023531;28;20289;-78
2022/07/12 12:20:42;;;;;;;1.00;0.90;;;24.40;1.00;;;;;;5025431;28;20285;-78
2022/07/12 12:23:19;;;;;;;1.17;0.90;;;24.50;1.00;;;;;;5016785;28;21048;-77
2022/07/12 12:25:45;;;;;;;3.10;1.02;;;24.60;1.00;;;;;;5032507;28;20206;-78
2022/07/12 12:28:12;;;;;;;2.67;1.48;;;24.70;1.00;;;;;;5017124;28;20723;-79
2022/07/12 12:30:52;;;;;;;1.95;1.10;;;24.60;1.00;;;;;;5025892;28;20226;-76
2022/07/12 12:33:38;;;;;;;0.85;0.85;;;24.70;1.00;;;;;;5023844;28;20418;-77
2022/07/12 12:36:24;;;;;;;1.30;1.10;;;24.80;1.00;;;;;;5025063;28;20253;-77
2022/07/12 12:38:57;;;;;;;1.65;1.00;;;24.80;1.00;;;;;;5025419;28;20214;-78
2022/07/12 12:41:25;;;;;;;1.05;1.00;;;24.90;1.00;;;;;;5014325;28;20582;-77
2022/07/12 12:44:02;;;;;;;2.13;1.00;;;24.90;1.00;;;;;;5025499;28;20179;-77
2022/07/12 12:47:30;;;;;;;0.70;0.70;;;25.10;1.00;;;;;;5024123;28;20182;-75
2022/07/12 12:49:50;;;;;;;1.00;1.00;;;25.10;1.00;;;;;;5024401;28;20218;-79
2022/07/12 12:52:17;;;;;;;1.05;0.95;;;25.10;1.00;;;;;;5013744;28;20214;-78
2022/07/12 12:54:44;;;;;;;1.67;1.02;;;25.20;1.00;;;;;;5024900;28;20642;-77
2022/07/12 12:57:10;;;;;;;0.77;0.77;;;25.10;1.00;;;;;;5015441;28;20215;-77
2022/07/12 12:59:36;;;;;;;0.95;0.90;;;25.10;1.00;;;;;;5015046;28;20209;-78
2022/07/12 13:02:03;;;;;;;0.80;0.80;;;25.10;99.90;;;;;;5025908;28;20187;-79